Time;durP1;ratioP1;P1;durP2;ratioP2;P2;SDS_P1;SDS_P2;PMS_P1;PMS_P2;Temp;Humidity;BMP_temperature;BMP_pressure;BME280_temperature;BME280_humidity;BME280_pressure;Samples;Min_cycle;Max_cycle;Signal;HPM_P1;HPM_P2
2023/04/23 00:02:21;;;;;;;29.25;17.40;;;7.40;99.90;;;;;;5109604;28;20047;-83
2023/04/23 00:04:52;;;;;;;27.35;17.83;;;7.40;99.90;;;;;;5109225;28;20382;-83
2023/04/23 00:07:20;;;;;;;24.48;17.50;;;7.40;99.90;;;;;;5108472;28;20104;-83
2023/04/23 00:09:46;;;;;;;23.75;15.73;;;7.40;99.90;;;;;;5106202;28;20094;-83
2023/04/23 00:12:12;;;;;;;27.02;17.42;;;7.30;99.90;;;;;;5107405;28;20106;-83
2023/04/23 00:14:37;;;;;;;28.88;17.52;;;7.40;99.90;;;;;;5108463;28;20039;-83
2023/04/23 00:17:03;;;;;;;24.25;16.15;;;7.30;99.90;;;;;;5091525;28;20040;-83
2023/04/23 00:19:29;;;;;;;28.45;17.13;;;7.30;99.90;;;;;;5109045;28;20058;-82
2023/04/23 00:21:54;;;;;;;27.55;17.90;;;7.30;99.90;;;;;;5109485;28;20080;-83
2023/04/23 00:24:20;;;;;;;26.55;17.48;;;7.40;99.90;;;;;;5106788;28;20044;-82
2023/04/23 00:26:46;;;;;;;26.35;16.73;;;7.30;99.90;;;;;;5107442;28;20513;-82
2023/04/23 00:29:11;;;;;;;29.45;17.92;;;7.40;99.90;;;;;;5106969;28;20058;-82
2023/04/23 00:31:37;;;;;;;26.85;17.92;;;7.30;99.90;;;;;;5108802;28;20035;-82
2023/04/23 00:34:04;;;;;;;30.38;18.30;;;7.40;99.90;;;;;;5107042;28;20058;-82
2023/04/23 00:36:29;;;;;;;29.02;17.33;;;7.40;99.90;;;;;;5090369;27;20082;-82
2023/04/23 00:38:55;;;;;;;27.25;18.08;;;7.40;99.90;;;;;;5110589;27;20101;-82
2023/04/23 00:41:21;;;;;;;30.33;17.42;;;7.40;99.90;;;;;;5128068;27;20043;-82
2023/04/23 00:43:47;;;;;;;29.42;17.67;;;7.30;99.90;;;;;;5128308;27;20501;-82
2023/04/23 00:46:13;;;;;;;28.05;17.30;;;7.30;99.90;;;;;;5109515;27;20074;-82
2023/04/23 00:48:40;;;;;;;25.40;15.57;;;7.30;99.90;;;;;;5106307;28;20413;-82
2023/04/23 00:51:05;;;;;;;29.92;17.38;;;7.30;99.90;;;;;;5116388;27;20126;-82
2023/04/23 00:53:34;;;;;;;27.23;16.40;;;7.20;99.90;;;;;;5110402;27;20669;-82
2023/04/23 00:56:02;;;;;;;28.73;17.83;;;7.30;99.90;;;;;;5095717;27;20046;-82
2023/04/23 00:58:29;;;;;;;25.38;16.50;;;7.20;99.90;;;;;;5128706;27;20058;-82
2023/04/23 01:00:55;;;;;;;25.63;17.25;;;7.20;99.90;;;;;;5128157;27;20062;-82
2023/04/23 01:03:22;;;;;;;28.63;17.45;;;7.20;99.90;;;;;;5127980;27;20053;-82
2023/04/23 01:05:49;;;;;;;29.58;18.55;;;7.20;99.90;;;;;;5126279;27;20046;-82
2023/04/23 01:08:17;;;;;;;34.25;19.02;;;7.20;99.90;;;;;;5091677;27;20078;-82
2023/04/23 01:10:43;;;;;;;28.05;16.98;;;7.20;99.90;;;;;;5094260;27;20059;-82
2023/04/23 01:13:10;;;;;;;32.97;20.40;;;7.10;99.90;;;;;;5090696;28;20051;-82
2023/04/23 01:15:36;;;;;;;32.35;19.77;;;7.10;99.90;;;;;;5105657;27;20142;-82
2023/04/23 01:18:03;;;;;;;39.80;23.42;;;7.20;99.90;;;;;;5110537;27;20134;-82
2023/04/23 01:20:29;;;;;;;46.63;24.00;;;7.10;99.90;;;;;;5128693;27;20421;-82
2023/04/23 01:22:55;;;;;;;43.65;23.83;;;7.10;99.90;;;;;;5124914;27;20039;-82
2023/04/23 01:25:21;;;;;;;41.45;24.05;;;7.10;99.90;;;;;;5073472;28;20040;-82
2023/04/23 01:27:47;;;;;;;48.20;25.63;;;7.10;99.90;;;;;;5108163;28;20047;-82
2023/04/23 01:30:13;;;;;;;43.97;24.65;;;7.10;99.90;;;;;;5089886;28;20044;-82
2023/04/23 01:32:39;;;;;;;52.78;26.50;;;7.10;99.90;;;;;;5105836;27;20051;-82
2023/04/23 01:35:06;;;;;;;45.22;24.52;;;7.10;99.90;;;;;;5110269;27;20075;-82
2023/04/23 01:37:32;;;;;;;57.05;28.65;;;7.10;99.90;;;;;;5108286;27;20047;-82
2023/04/23 01:39:58;;;;;;;49.83;27.38;;;7.10;99.90;;;;;;5128864;27;20434;-82
2023/04/23 01:42:24;;;;;;;50.75;26.50;;;7.20;99.90;;;;;;5109831;28;20051;-82
2023/04/23 01:44:49;;;;;;;49.08;25.38;;;7.10;99.90;;;;;;5098952;28;20048;-83
2023/04/23 01:47:15;;;;;;;51.45;28.15;;;7.20;99.90;;;;;;5121611;27;20050;-82
2023/04/23 01:49:41;;;;;;;56.20;30.40;;;7.10;99.90;;;;;;5108905;28;20485;-83
2023/04/23 01:52:06;;;;;;;58.83;31.38;;;7.10;99.90;;;;;;5109260;28;20398;-82
2023/04/23 01:54:32;;;;;;;55.17;30.42;;;7.10;99.90;;;;;;5125742;27;20039;-83
2023/04/23 01:56:58;;;;;;;58.70;30.25;;;7.10;99.90;;;;;;5127752;28;20133;-83
2023/04/23 01:59:23;;;;;;;59.45;30.23;;;7.10;99.90;;;;;;5127258;27;20035;-82
2023/04/23 02:01:49;;;;;;;54.97;30.63;;;7.10;99.90;;;;;;5119776;28;20074;-83
2023/04/23 02:04:16;;;;;;;63.53;31.20;;;7.10;99.90;;;;;;5128830;28;20039;-83
2023/04/23 02:06:44;;;;;;;60.72;32.40;;;7.10;99.90;;;;;;5128059;28;20126;-82
2023/04/23 02:09:10;;;;;;;55.17;29.70;;;7.10;99.90;;;;;;5126712;28;20043;-83
2023/04/23 02:11:36;;;;;;;53.22;29.85;;;7.10;99.90;;;;;;5127919;27;20076;-82
2023/04/23 02:14:02;;;;;;;52.92;29.25;;;7.00;99.90;;;;;;5115552;28;20521;-83
2023/04/23 02:16:28;;;;;;;54.92;30.33;;;7.00;99.90;;;;;;5126853;27;20132;-82
2023/04/23 02:18:54;;;;;;;54.22;29.65;;;7.00;99.90;;;;;;5127112;27;20036;-83
2023/04/23 02:21:22;;;;;;;54.78;28.55;;;7.00;99.90;;;;;;5096326;28;20036;-83
2023/04/23 02:23:48;;;;;;;59.28;31.90;;;6.90;99.90;;;;;;5123097;28;20039;-82
2023/04/23 02:26:14;;;;;;;60.85;32.95;;;6.90;99.90;;;;;;5128545;27;20085;-82
2023/04/23 02:28:40;;;;;;;57.25;29.88;;;6.90;99.90;;;;;;5111302;28;20144;-82
2023/04/23 02:31:06;;;;;;;56.28;32.15;;;6.90;99.90;;;;;;5101779;28;20393;-82
2023/04/23 02:33:32;;;;;;;61.20;32.60;;;6.80;99.90;;;;;;5127567;27;20154;-82
2023/04/23 02:35:58;;;;;;;57.90;32.90;;;6.80;99.90;;;;;;5129052;27;20060;-82
2023/04/23 02:38:24;;;;;;;61.28;32.17;;;6.70;99.90;;;;;;5112529;28;20055;-82
2023/04/23 02:40:49;;;;;;;62.30;32.22;;;6.70;99.90;;;;;;5127469;27;20454;-82
2023/04/23 02:43:15;;;;;;;63.25;33.05;;;6.70;99.90;;;;;;5129700;27;20164;-82
2023/04/23 02:45:40;;;;;;;65.63;34.45;;;6.60;99.90;;;;;;5131539;27;20051;-82
2023/04/23 02:48:06;;;;;;;65.05;34.00;;;6.60;99.90;;;;;;5112740;27;20076;-82
2023/04/23 02:50:32;;;;;;;70.68;35.83;;;6.60;99.90;;;;;;5131341;27;20063;-82
2023/04/23 02:52:57;;;;;;;68.75;33.65;;;6.50;99.90;;;;;;5114598;27;20054;-83
2023/04/23 02:55:24;;;;;;;65.95;34.00;;;6.50;99.90;;;;;;5128625;27;20054;-82
2023/04/23 02:57:50;;;;;;;67.25;34.67;;;6.50;99.90;;;;;;5112467;27;20164;-82
2023/04/23 03:00:16;;;;;;;70.25;34.92;;;6.50;99.90;;;;;;5130172;27;20035;-82
2023/04/23 03:02:42;;;;;;;62.83;33.17;;;6.50;99.90;;;;;;5131479;27;20070;-82
2023/04/23 03:05:08;;;;;;;76.13;36.60;;;6.50;99.90;;;;;;5127696;27;20039;-82
2023/04/23 03:07:34;;;;;;;72.45;35.13;;;6.60;99.90;;;;;;5118402;27;20039;-82
2023/04/23 03:09:59;;;;;;;223.73;43.60;;;6.70;99.90;;;;;;5131196;27;20043;-82
2023/04/23 03:12:25;;;;;;;87.40;35.88;;;6.70;99.90;;;;;;5111550;27;20051;-82
2023/04/23 03:14:50;;;;;;;98.32;36.47;;;6.80;99.90;;;;;;5130801;27;20051;-82
2023/04/23 03:17:16;;;;;;;244.48;45.35;;;6.90;99.90;;;;;;5111388;27;20039;-82
2023/04/23 03:19:42;;;;;;;194.32;39.60;;;7.00;99.90;;;;;;5128376;27;20050;-82
2023/04/23 03:22:07;;;;;;;327.92;46.85;;;7.00;99.90;;;;;;5125884;27;20083;-82
2023/04/23 03:24:34;;;;;;;288.15;45.58;;;7.10;99.90;;;;;;5126780;27;20500;-82
2023/04/23 03:26:59;;;;;;;114.65;37.25;;;7.10;99.90;;;;;;5115538;27;20116;-82
2023/04/23 03:29:25;;;;;;;151.70;38.70;;;7.10;99.90;;;;;;5110043;28;20748;-82
2023/04/23 03:31:51;;;;;;;136.40;40.13;;;7.10;99.90;;;;;;5127771;27;20039;-82
2023/04/23 03:34:16;;;;;;;158.48;39.90;;;7.20;99.90;;;;;;5112970;27;20120;-82
2023/04/23 03:36:43;;;;;;;266.50;45.60;;;7.20;99.90;;;;;;5112334;27;20401;-83
2023/04/23 03:39:10;;;;;;;165.05;41.00;;;7.20;99.90;;;;;;5130157;27;20072;-83
2023/04/23 03:41:35;;;;;;;196.00;43.30;;;7.20;99.90;;;;;;5112712;27;20166;-83
2023/04/23 03:44:01;;;;;;;333.95;52.85;;;7.30;99.90;;;;;;5130721;27;20051;-83
2023/04/23 03:46:26;;;;;;;183.77;43.60;;;7.30;99.90;;;;;;5129609;27;20050;-83
2023/04/23 03:48:52;;;;;;;135.60;43.58;;;7.40;99.90;;;;;;5128902;27;20039;-83
2023/04/23 03:51:17;;;;;;;120.93;39.92;;;7.40;99.90;;;;;;5125604;27;20118;-83
2023/04/23 03:53:45;;;;;;;264.63;49.42;;;7.40;99.90;;;;;;5129516;27;20477;-82
2023/04/23 03:56:10;;;;;;;214.68;47.45;;;7.40;99.90;;;;;;5127147;27;20496;-82
2023/04/23 03:58:36;;;;;;;207.27;47.92;;;7.40;99.90;;;;;;5109868;27;20048;-82
2023/04/23 04:01:01;;;;;;;207.77;48.65;;;7.50;99.90;;;;;;5111600;27;20043;-83
2023/04/23 04:03:27;;;;;;;232.30;50.75;;;7.50;99.90;;;;;;5111228;27;20035;-83
2023/04/23 04:05:53;;;;;;;182.20;48.78;;;7.50;99.90;;;;;;5110592;27;20761;-83
2023/04/23 04:08:19;;;;;;;165.93;47.35;;;7.50;99.90;;;;;;5129216;27;20051;-83
2023/04/23 04:10:45;;;;;;;288.75;51.05;;;7.60;99.90;;;;;;5127850;27;20165;-83
2023/04/23 04:13:10;;;;;;;171.18;45.70;;;7.60;99.90;;;;;;5127118;27;20577;-83
2023/04/23 04:15:36;;;;;;;324.80;52.10;;;7.60;99.90;;;;;;5080412;28;20051;-82
2023/04/23 04:18:02;;;;;;;183.57;45.75;;;7.60;99.90;;;;;;5115682;27;20040;-83
2023/04/23 04:20:28;;;;;;;284.83;52.13;;;7.70;99.90;;;;;;5128691;27;20035;-83
2023/04/23 04:22:54;;;;;;;218.20;49.70;;;7.70;99.90;;;;;;5110621;27;20054;-83
2023/04/23 04:25:21;;;;;;;130.27;44.47;;;7.70;99.90;;;;;;5129475;27;20035;-83
2023/04/23 04:27:47;;;;;;;99.07;43.65;;;7.90;99.90;;;;;;5125746;27;20051;-83
2023/04/23 04:30:13;;;;;;;144.15;46.95;;;7.70;99.90;;;;;;5080602;28;20079;-83
2023/04/23 04:32:39;;;;;;;121.70;47.40;;;7.70;99.90;;;;;;5091071;28;20043;-83
2023/04/23 04:35:07;;;;;;;120.57;45.47;;;7.80;99.90;;;;;;5128977;27;20046;-83
2023/04/23 04:37:34;;;;;;;126.78;45.78;;;7.80;99.90;;;;;;5115387;27;20075;-82
2023/04/23 04:40:00;;;;;;;102.32;42.85;;;7.80;99.90;;;;;;5090368;28;20043;-82
2023/04/23 04:42:26;;;;;;;110.43;42.20;;;7.80;99.90;;;;;;5122822;27;20108;-83
2023/04/23 04:44:51;;;;;;;147.30;42.72;;;7.80;99.90;;;;;;5110431;27;20035;-82
2023/04/23 04:47:18;;;;;;;139.80;42.40;;;7.80;99.90;;;;;;5092665;27;20397;-82
2023/04/23 04:49:43;;;;;;;103.78;41.00;;;7.80;99.90;;;;;;5094148;27;20100;-83
2023/04/23 04:52:10;;;;;;;140.57;41.63;;;7.80;99.90;;;;;;5078902;27;20055;-82
2023/04/23 04:54:35;;;;;;;123.53;39.17;;;7.80;99.90;;;;;;5076637;27;20461;-83
2023/04/23 04:57:01;;;;;;;124.63;41.67;;;7.80;99.90;;;;;;5110522;27;20043;-82
2023/04/23 04:59:27;;;;;;;102.75;41.22;;;7.90;99.90;;;;;;5126457;27;20043;-82
2023/04/23 05:01:52;;;;;;;105.25;41.10;;;7.90;99.90;;;;;;5109668;27;20072;-82
2023/04/23 05:04:18;;;;;;;98.68;42.47;;;8.00;99.90;;;;;;5109756;27;20081;-82
2023/04/23 05:06:44;;;;;;;99.20;40.88;;;8.00;99.90;;;;;;5108083;27;20123;-83
2023/04/23 05:09:10;;;;;;;99.03;42.08;;;8.00;99.90;;;;;;5110207;27;20062;-83
2023/04/23 05:11:36;;;;;;;106.55;43.10;;;8.00;99.90;;;;;;5110365;27;20027;-83
2023/04/23 05:14:03;;;;;;;86.57;39.47;;;8.10;99.90;;;;;;5110127;27;20531;-83
2023/04/23 05:16:28;;;;;;;97.07;41.33;;;8.10;99.90;;;;;;5128988;27;20055;-83
2023/04/23 05:18:54;;;;;;;91.63;41.85;;;8.10;99.90;;;;;;5098142;28;20051;-83
2023/04/23 05:21:20;;;;;;;98.00;42.28;;;8.10;99.90;;;;;;5090463;28;20097;-83
2023/04/23 05:23:45;;;;;;;94.85;41.22;;;8.10;99.90;;;;;;5095166;27;20027;-83
2023/04/23 05:26:11;;;;;;;95.68;43.30;;;8.20;99.90;;;;;;5093508;27;20047;-83
2023/04/23 05:28:36;;;;;;;98.60;46.25;;;8.20;99.90;;;;;;5110135;27;20043;-83
2023/04/23 05:31:02;;;;;;;98.28;42.47;;;8.20;99.90;;;;;;5100125;27;20051;-83
2023/04/23 05:33:28;;;;;;;92.32;41.67;;;8.30;99.90;;;;;;5126639;27;20045;-84
2023/04/23 05:35:53;;;;;;;100.80;43.60;;;8.30;99.90;;;;;;5109247;27;20133;-83
2023/04/23 05:38:19;;;;;;;90.63;42.67;;;8.30;99.90;;;;;;5109591;27;20063;-83
2023/04/23 05:40:45;;;;;;;93.38;42.50;;;8.30;99.90;;;;;;5096016;28;20051;-84
2023/04/23 05:43:11;;;;;;;97.32;42.97;;;8.40;99.90;;;;;;5108933;28;20045;-83
2023/04/23 05:45:37;;;;;;;90.72;41.67;;;8.40;99.90;;;;;;5128254;27;20039;-83
2023/04/23 05:48:02;;;;;;;87.35;41.58;;;8.50;99.90;;;;;;5105649;27;20108;-83
2023/04/23 05:50:28;;;;;;;83.55;40.35;;;8.60;99.90;;;;;;5126556;27;20043;-83
2023/04/23 05:52:53;;;;;;;87.80;41.35;;;8.60;99.90;;;;;;5110165;28;20049;-84
2023/04/23 05:55:20;;;;;;;80.28;39.92;;;8.70;99.90;;;;;;5110572;28;20047;-83
2023/04/23 05:57:46;;;;;;;84.85;40.25;;;8.70;99.90;;;;;;5103835;28;20080;-84
2023/04/23 06:00:14;;;;;;;86.60;39.65;;;9.00;99.90;;;;;;5096318;28;20058;-84
2023/04/23 06:02:40;;;;;;;80.45;40.10;;;9.40;99.90;;;;;;5121326;28;20084;-84
2023/04/23 06:05:06;;;;;;;80.45;40.47;;;9.70;99.90;;;;;;5124019;28;20043;-83
2023/04/23 06:07:32;;;;;;;78.53;38.70;;;9.80;99.90;;;;;;5108437;28;20146;-81
2023/04/23 06:09:58;;;;;;;76.45;38.30;;;10.00;99.90;;;;;;5089878;28;20043;-83
2023/04/23 06:12:24;;;;;;;72.47;37.28;;;9.90;99.90;;;;;;5102242;27;20507;-85
2023/04/23 06:14:51;;;;;;;78.20;40.05;;;10.00;99.90;;;;;;5085353;28;20444;-84
2023/04/23 06:17:17;;;;;;;69.32;38.13;;;10.10;99.90;;;;;;5093758;28;20108;-84
2023/04/23 06:19:42;;;;;;;68.65;36.40;;;10.00;99.90;;;;;;5076564;28;20088;-85
2023/04/23 06:22:08;;;;;;;67.00;37.20;;;10.10;99.90;;;;;;5091897;28;20344;-84
2023/04/23 06:24:34;;;;;;;65.88;36.83;;;10.20;99.90;;;;;;5093348;28;20096;-84
2023/04/23 06:27:01;;;;;;;60.35;34.38;;;10.50;99.90;;;;;;5093771;28;20043;-85
2023/04/23 06:29:27;;;;;;;62.80;36.50;;;10.40;99.90;;;;;;5105547;27;20126;-84
2023/04/23 06:31:55;;;;;;;60.65;34.40;;;10.50;99.90;;;;;;5112428;27;20118;-84
2023/04/23 06:34:21;;;;;;;56.90;34.40;;;10.60;99.90;;;;;;5099123;28;20087;-84
2023/04/23 06:36:47;;;;;;;57.33;33.05;;;10.70;99.90;;;;;;5092423;28;20090;-84
2023/04/23 06:39:12;;;;;;;55.78;33.10;;;10.70;99.90;;;;;;5095542;27;20055;-83
2023/04/23 06:41:38;;;;;;;51.28;31.38;;;10.80;99.90;;;;;;5113486;27;20450;-84
2023/04/23 06:44:04;;;;;;;50.03;31.77;;;10.80;99.90;;;;;;5131663;27;20505;-85
2023/04/23 06:46:30;;;;;;;50.90;32.72;;;10.80;99.90;;;;;;5097050;27;20058;-85
2023/04/23 06:48:56;;;;;;;50.05;31.27;;;10.90;99.90;;;;;;5113515;27;20367;-85
2023/04/23 06:51:24;;;;;;;49.55;30.45;;;11.00;99.90;;;;;;5113433;27;20408;-84
2023/04/23 06:53:50;;;;;;;48.47;30.48;;;11.10;99.90;;;;;;5096943;27;20370;-84
2023/04/23 06:56:16;;;;;;;46.67;30.80;;;11.20;99.90;;;;;;5112383;27;20055;-84
2023/04/23 06:58:44;;;;;;;45.88;30.02;;;11.20;99.90;;;;;;5131661;27;20126;-85
2023/04/23 07:01:10;;;;;;;43.50;28.50;;;11.30;99.90;;;;;;5113411;27;20138;-86
2023/04/23 07:03:36;;;;;;;44.70;27.60;;;11.30;99.90;;;;;;5132118;27;20444;-86
2023/04/23 07:06:02;;;;;;;44.78;28.95;;;11.50;99.90;;;;;;5114087;27;20043;-84
2023/04/23 07:08:27;;;;;;;42.45;27.50;;;11.60;99.90;;;;;;5130848;27;20044;-83
2023/04/23 07:10:53;;;;;;;43.65;28.25;;;11.70;99.90;;;;;;5132334;27;20032;-84
2023/04/23 07:13:19;;;;;;;41.97;26.25;;;11.80;99.90;;;;;;5108756;28;20040;-83
2023/04/23 07:15:45;;;;;;;45.67;27.55;;;11.90;99.90;;;;;;5112331;28;20755;-84
2023/04/23 07:18:11;;;;;;;37.25;27.08;;;12.00;99.90;;;;;;5121514;27;20082;-84
2023/04/23 07:20:36;;;;;;;38.70;26.10;;;12.00;99.90;;;;;;5111543;28;20074;-84
2023/04/23 07:23:03;;;;;;;37.45;26.05;;;12.10;99.90;;;;;;5111234;28;20035;-84
2023/04/23 07:25:28;;;;;;;38.95;25.67;;;12.10;99.90;;;;;;5110407;28;20090;-84
2023/04/23 07:27:54;;;;;;;38.00;25.27;;;12.10;99.90;;;;;;5110591;28;20464;-84
2023/04/23 07:30:21;;;;;;;36.08;25.30;;;12.10;99.90;;;;;;5092289;28;20036;-84
2023/04/23 07:32:47;;;;;;;37.53;25.83;;;12.20;99.90;;;;;;5092793;28;20436;-84
2023/04/23 07:35:13;;;;;;;37.08;26.45;;;12.30;99.90;;;;;;5112857;27;20055;-84
2023/04/23 07:37:39;;;;;;;38.28;25.90;;;12.40;99.90;;;;;;5112670;27;20517;-84
2023/04/23 07:40:06;;;;;;;33.75;24.15;;;12.60;99.90;;;;;;5131385;27;20075;-84
2023/04/23 07:42:32;;;;;;;35.53;23.88;;;12.70;99.90;;;;;;5112459;27;20112;-83
2023/04/23 07:44:57;;;;;;;30.85;22.90;;;13.00;99.90;;;;;;5112254;27;20065;-84
2023/04/23 07:47:23;;;;;;;31.35;22.77;;;13.20;99.90;;;;;;5111307;27;20055;-84
2023/04/23 07:49:48;;;;;;;31.00;22.73;;;13.30;99.90;;;;;;5093128;28;20073;-83
2023/04/23 07:52:15;;;;;;;30.48;23.75;;;13.30;99.90;;;;;;5110512;28;20043;-83
2023/04/23 07:54:41;;;;;;;31.23;22.77;;;13.40;99.90;;;;;;5110216;28;20043;-84
2023/04/23 07:57:06;;;;;;;32.55;22.58;;;13.30;99.90;;;;;;5110366;28;20046;-84
2023/04/23 07:59:32;;;;;;;28.95;21.80;;;13.40;99.90;;;;;;5110833;28;20043;-84
2023/04/23 08:01:58;;;;;;;28.45;22.17;;;13.50;99.90;;;;;;5092523;28;20098;-84
2023/04/23 08:04:25;;;;;;;30.77;23.25;;;13.50;99.90;;;;;;5126090;27;20032;-84
2023/04/23 08:06:53;;;;;;;28.02;21.08;;;13.60;99.90;;;;;;5092643;28;20047;-83
2023/04/23 08:09:27;;;;;;;25.58;20.75;;;13.60;99.90;;;;;;5110041;28;20043;-85
2023/04/23 08:12:25;;;;;;;29.42;22.50;;;13.70;99.90;;;;;;5111436;28;20407;-84
2023/04/23 08:18:57;;;;;;;26.52;21.00;;;13.90;99.90;;;;;;5108587;28;20847;-85
2023/04/23 08:22:03;;;;;;;26.85;20.92;;;14.00;99.90;;;;;;5083914;28;20742;-85
2023/04/23 08:24:32;;;;;;;25.80;20.88;;;14.10;99.90;;;;;;5081485;28;20063;-84
2023/04/23 08:27:21;;;;;;;;;;;;;;;;;;;;;
2023/04/23 08:34:18;;;;;;;27.52;21.02;;;14.30;99.90;;;;;;5054032;28;20048;-83
2023/04/23 08:37:27;;;;;;;23.13;18.58;;;13.80;99.90;;;;;;5055373;28;20048;-83
2023/04/23 08:40:03;;;;;;;23.83;18.50;;;14.00;99.90;;;;;;5066974;28;20052;-83
2023/04/23 08:42:55;;;;;;;23.65;19.77;;;14.70;99.90;;;;;;5069812;28;20036;-83
2023/04/23 08:45:21;;;;;;;;;;;14.60;99.90;;;;;;5097346;28;20095;-84
2023/04/23 08:47:49;;;;;;;20.70;16.23;;;14.70;99.90;;;;;;5091496;28;19956;-84
2023/04/23 08:50:19;;;;;;;23.58;17.55;;;14.90;99.90;;;;;;5109375;28;20526;-83
2023/04/23 08:52:55;;;;;;;24.95;18.40;;;15.10;99.90;;;;;;5091076;28;20048;-83
2023/04/23 08:55:42;;;;;;;25.58;17.85;;;15.20;99.90;;;;;;5114037;27;20039;-83
2023/04/23 08:58:34;;;;;;;22.00;17.20;;;15.30;99.90;;;;;;5111896;27;20043;-84
2023/04/23 09:01:20;;;;;;;21.77;17.50;;;14.90;99.90;;;;;;5096873;28;20577;-84
2023/04/23 09:04:30;;;;;;;;;;;;;;;;;;;;;
2023/04/23 09:07:10;;;;;;;;;;;;;;;;;;;;;
2023/04/23 09:09:50;;;;;;;18.95;15.18;;;15.50;99.90;;;;;;5102779;27;20047;-83
2023/04/23 09:12:48;;;;;;;15.18;13.30;;;15.60;99.90;;;;;;5111661;27;20049;-83
2023/04/23 09:15:18;;;;;;;17.48;12.25;;;15.60;99.90;;;;;;5051550;28;20075;-84
2023/04/23 09:18:11;;;;;;;16.85;12.32;;;15.70;99.90;;;;;;5108383;27;20055;-83
2023/04/23 09:21:02;;;;;;;15.82;12.18;;;15.70;99.90;;;;;;5128223;27;20432;-83
2023/04/23 09:23:31;;;;;;;17.67;12.13;;;15.70;99.90;;;;;;5075497;27;20055;-84
2023/04/23 09:25:56;;;;;;;15.88;12.75;;;15.80;99.90;;;;;;5127393;27;20675;-83
2023/04/23 09:28:35;;;;;;;14.30;11.75;;;16.60;99.90;;;;;;5128919;27;20142;-85
2023/04/23 09:31:01;;;;;;;12.32;10.13;;;16.10;99.90;;;;;;5129845;27;20058;-83
2023/04/23 09:33:27;;;;;;;14.95;11.90;;;16.40;99.90;;;;;;5110516;27;20043;-83
2023/04/23 09:35:53;;;;;;;14.05;11.32;;;16.60;99.90;;;;;;5093801;27;20054;-84
2023/04/23 09:38:26;;;;;;;16.00;11.20;;;16.90;99.90;;;;;;5109772;27;20051;-83
2023/04/23 09:41:27;;;;;;;14.63;11.25;;;17.00;99.90;;;;;;5110143;27;20119;-83
2023/04/23 09:44:25;;;;;;;14.07;9.90;;;16.90;99.90;;;;;;5127629;27;20453;-83
2023/04/23 09:47:08;;;;;;;10.40;7.82;;;16.80;99.90;;;;;;5122833;27;20051;-84
2023/04/23 09:50:07;;;;;;;9.52;6.63;;;16.70;99.90;;;;;;5103593;28;20047;-83
2023/04/23 09:52:37;;;;;;;10.43;7.00;;;17.00;99.90;;;;;;5107450;28;20047;-83
2023/04/23 09:55:06;;;;;;;11.40;7.38;;;16.60;99.90;;;;;;5089901;28;20048;-84
2023/04/23 09:58:14;;;;;;;9.93;6.53;;;17.10;99.90;;;;;;5090950;28;20051;-83
2023/04/23 10:01:14;;;;;;;9.50;7.40;;;16.60;99.90;;;;;;5101448;27;20055;-82
2023/04/23 10:07:41;;;;;;;12.65;7.25;;;16.70;99.90;;;;;;5103972;28;20047;-82
2023/04/23 10:10:16;;;;;;;8.33;6.50;;;16.70;99.90;;;;;;5110482;28;20082;-80
2023/04/23 10:13:00;;;;;;;;;;;;;;;;;;;;;
2023/04/23 10:15:35;;;;;;;8.68;5.47;;;17.40;99.90;;;;;;5108775;28;20103;-81
2023/04/23 10:18:29;;;;;;;7.15;5.95;;;17.60;99.90;;;;;;5125115;28;20549;-83
2023/04/23 10:21:06;;;;;;;11.02;5.57;;;17.20;99.90;;;;;;5125895;27;20047;-81
2023/04/23 10:26:33;;;;;;;7.30;5.43;;;17.50;99.90;;;;;;5099328;28;20066;-81
2023/04/23 10:29:11;;;;;;;8.68;5.45;;;17.70;99.90;;;;;;5091873;28;20051;-82
2023/04/23 10:31:38;;;;;;;8.95;5.53;;;17.90;99.90;;;;;;5108775;28;20043;-82
2023/04/23 10:34:05;;;;;;;11.18;5.95;;;17.50;99.90;;;;;;5127866;27;20040;-82
2023/04/23 10:36:34;;;;;;;7.63;5.15;;;17.70;99.90;;;;;;5114656;27;20107;-83
2023/04/23 10:39:03;;;;;;;6.40;4.35;;;18.10;99.90;;;;;;5127395;27;20051;-82
2023/04/23 10:41:35;;;;;;;8.35;5.00;;;17.80;99.90;;;;;;5116957;27;20134;-82
2023/04/23 10:44:04;;;;;;;7.47;4.43;;;17.70;99.90;;;;;;5107804;28;20043;-82
2023/04/23 10:46:31;;;;;;;6.43;4.80;;;17.70;99.90;;;;;;5108118;28;20116;-82
2023/04/23 10:49:15;;;;;;;6.70;4.30;;;17.90;99.90;;;;;;5088217;28;20448;-82
2023/04/23 10:51:46;;;;;;;5.80;3.88;;;17.80;99.90;;;;;;5108056;28;20131;-84
2023/04/23 10:54:18;;;;;;;4.18;3.10;;;18.10;99.90;;;;;;5108158;28;20048;-83
2023/04/23 10:56:43;;;;;;;5.30;3.15;;;18.30;99.90;;;;;;5107575;28;20088;-83
2023/04/23 10:59:19;;;;;;;7.70;3.00;;;18.20;99.90;;;;;;5093624;28;20417;-83
2023/04/23 11:01:54;;;;;;;5.50;2.90;;;18.30;99.90;;;;;;5084048;27;20039;-83
2023/04/23 11:04:23;;;;;;;5.05;2.55;;;18.50;99.90;;;;;;5095516;27;20142;-83
2023/04/23 11:06:53;;;;;;;5.55;3.05;;;18.50;99.90;;;;;;5131525;27;20066;-84
2023/04/23 11:09:36;;;;;;;4.43;3.40;;;18.30;99.90;;;;;;5102127;27;20035;-84
2023/04/23 11:12:05;;;;;;;4.45;2.80;;;18.30;99.90;;;;;;5113334;27;20059;-84
2023/04/23 11:14:41;;;;;;;5.10;3.03;;;18.20;99.90;;;;;;5110632;28;20581;-83
2023/04/23 11:17:09;;;;;;;5.53;2.45;;;18.30;99.90;;;;;;5097800;27;20047;-84
2023/04/23 11:19:39;;;;;;;3.88;2.05;;;18.30;99.90;;;;;;5130399;27;20358;-84
2023/04/23 11:22:12;;;;;;;3.70;2.22;;;18.50;99.90;;;;;;5095715;27;20184;-84
2023/04/23 11:24:43;;;;;;;3.92;2.20;;;18.60;99.90;;;;;;5112852;27;20055;-84
2023/04/23 11:27:14;;;;;;;4.90;2.22;;;18.60;98.00;;;;;;5100828;28;20047;-84
2023/04/23 11:29:42;;;;;;;4.13;2.40;;;18.50;96.90;;;;;;5079304;27;20043;-83
2023/04/23 11:32:09;;;;;;;4.75;2.33;;;18.30;97.50;;;;;;5104009;27;20061;-83
2023/04/23 11:34:37;;;;;;;5.00;2.22;;;18.30;98.50;;;;;;5118757;27;20095;-83
2023/04/23 11:37:03;;;;;;;3.50;2.25;;;18.50;98.90;;;;;;5103126;27;20052;-83
2023/04/23 11:39:29;;;;;;;5.20;2.42;;;18.40;98.30;;;;;;5103518;27;20058;-82
2023/04/23 11:42:01;;;;;;;3.95;1.98;;;18.10;97.70;;;;;;5106049;27;20059;-82
2023/04/23 11:44:29;;;;;;;3.90;2.00;;;18.20;97.60;;;;;;5086490;27;20220;-81
2023/04/23 11:46:54;;;;;;;3.47;2.10;;;18.50;97.30;;;;;;5110942;27;20050;-82
2023/04/23 11:49:20;;;;;;;4.20;2.20;;;18.70;97.00;;;;;;5129795;27;20072;-83
2023/04/23 11:51:47;;;;;;;5.15;1.75;;;18.90;95.80;;;;;;5116916;27;20417;-79
2023/04/23 11:54:13;;;;;;;4.22;1.98;;;19.00;94.20;;;;;;5108933;28;20040;-80
2023/04/23 11:56:40;;;;;;;3.78;2.08;;;19.10;93.70;;;;;;5096210;27;20497;-80
2023/04/23 11:59:07;;;;;;;4.82;2.30;;;19.20;93.50;;;;;;5130948;27;20043;-79
2023/04/23 12:01:47;;;;;;;4.25;2.38;;;19.20;93.60;;;;;;5111623;27;20638;-80
2023/04/23 12:04:13;;;;;;;2.80;1.90;;;19.20;92.00;;;;;;5130133;27;20137;-80
2023/04/23 12:06:41;;;;;;;4.90;2.10;;;19.00;92.60;;;;;;5128636;27;20043;-81
2023/04/23 12:09:09;;;;;;;4.22;2.30;;;18.90;92.30;;;;;;5129302;27;20042;-81
2023/04/23 12:11:35;;;;;;;4.38;2.40;;;18.80;92.50;;;;;;5127852;27;20046;-82
2023/04/23 12:14:00;;;;;;;4.57;2.10;;;18.50;92.50;;;;;;5111049;27;20043;-80
2023/04/23 12:16:40;;;;;;;5.93;2.55;;;18.60;93.40;;;;;;5130169;27;20051;-80
2023/04/23 12:19:13;;;;;;;5.53;2.22;;;18.60;91.80;;;;;;5128429;27;20043;-80
2023/04/23 12:22:01;;;;;;;3.83;2.10;;;18.50;91.90;;;;;;5126500;27;20048;-81
2023/04/23 12:24:30;;;;;;;3.58;1.90;;;18.70;91.60;;;;;;5121031;27;20071;-81
2023/04/23 12:27:01;;;;;;;4.57;2.50;;;18.80;93.10;;;;;;5109692;28;20059;-81
2023/04/23 12:29:29;;;;;;;5.00;2.38;;;19.00;93.30;;;;;;5091041;28;20058;-81
2023/04/23 12:31:58;;;;;;;4.53;1.80;;;19.10;92.80;;;;;;5109806;28;20044;-81
2023/04/23 12:34:23;;;;;;;3.63;1.75;;;19.20;92.00;;;;;;5109127;28;20515;-81
2023/04/23 12:36:51;;;;;;;5.65;1.88;;;19.30;91.30;;;;;;5108884;28;20149;-81
2023/04/23 12:39:33;;;;;;;5.35;1.95;;;19.40;88.60;;;;;;5120100;27;20070;-80
2023/04/23 12:42:09;;;;;;;5.75;1.83;;;19.20;80.10;;;;;;5095905;27;20050;-81
2023/04/23 12:44:36;;;;;;;4.70;1.90;;;19.10;89.00;;;;;;5129544;27;20043;-81
2023/04/23 12:47:07;;;;;;;4.97;1.88;;;19.10;90.20;;;;;;5109365;27;20047;-82
2023/04/23 12:49:34;;;;;;;5.32;1.83;;;19.20;89.90;;;;;;5109628;27;20051;-82
2023/04/23 12:52:01;;;;;;;4.80;1.48;;;19.20;90.60;;;;;;5129044;27;20049;-81
2023/04/23 12:54:35;;;;;;;4.93;1.58;;;19.20;90.50;;;;;;5128966;27;20074;-81
2023/04/23 12:57:02;;;;;;;3.03;1.77;;;19.10;86.60;;;;;;5102012;28;20056;-80
2023/04/23 12:59:29;;;;;;;5.07;2.00;;;19.10;89.70;;;;;;5109157;28;20035;-81
2023/04/23 13:01:54;;;;;;;4.80;1.65;;;19.20;90.00;;;;;;5111347;27;20046;-81
2023/04/23 13:04:20;;;;;;;5.88;1.83;;;19.10;89.30;;;;;;5128215;27;20497;-81
2023/04/23 13:06:46;;;;;;;3.20;1.45;;;19.00;88.20;;;;;;5111584;27;20076;-81